createdAt,value
2022-09-02T00:00:02.545Z,44.11
2022-09-02T00:01:02.591Z,47.92
2022-09-02T00:02:02.610Z,51.16
2022-09-02T00:03:02.672Z,49.26
2022-09-02T00:04:02.579Z,48.82
2022-09-02T00:05:02.523Z,50.75
2022-09-02T00:06:02.533Z,53.88
2022-09-02T00:07:02.581Z,46.25
2022-09-02T00:08:02.499Z,50.18
2022-09-02T00:09:02.505Z,48.80
2022-09-02T00:10:02.490Z,44.05
2022-09-02T00:11:02.530Z,43.98
2022-09-02T00:12:02.502Z,54.90
2022-09-02T00:13:02.488Z,49.66
2022-09-02T00:14:02.483Z,48.46
2022-09-02T00:15:02.490Z,59.97
2022-09-02T00:16:02.451Z,52.38
2022-09-02T00:17:02.473Z,54.64
2022-09-02T00:18:02.449Z,44.92
2022-09-02T00:19:02.425Z,48.28
2022-09-02T00:20:02.473Z,43.21
2022-09-02T00:21:02.503Z,43.31
2022-09-02T00:22:02.452Z,49.49
2022-09-02T00:23:02.439Z,43.54
2022-09-02T00:24:02.393Z,47.03
2022-09-02T00:25:02.381Z,48.83
2022-09-02T00:26:02.418Z,45.32
2022-09-02T00:27:02.476Z,43.19
2022-09-02T00:28:02.380Z,46.96
2022-09-02T00:29:02.359Z,53.71
2022-09-02T00:30:02.378Z,43.79
2022-09-02T00:31:02.408Z,53.70
2022-09-02T00:32:02.414Z,48.38
2022-09-02T00:33:02.381Z,51.46
2022-09-02T00:34:02.348Z,49.09
2022-09-02T00:35:02.355Z,57.10
2022-09-02T00:36:02.419Z,44.54
2022-09-02T00:37:02.309Z,49.95
2022-09-02T00:38:02.365Z,44.00
2022-09-02T00:39:02.273Z,44.02
2022-09-02T00:40:02.436Z,52.03
2022-09-02T00:41:02.276Z,49.75
2022-09-02T00:42:02.308Z,54.16
2022-09-02T00:43:02.290Z,44.70
2022-09-02T00:44:02.258Z,44.58
2022-09-02T00:45:02.199Z,52.66
2022-09-02T00:46:02.329Z,61.39
2022-09-02T00:47:02.216Z,44.66
2022-09-02T00:48:02.220Z,48.12
2022-09-02T00:49:02.215Z,44.02
2022-09-02T00:50:02.239Z,49.64
2022-09-02T00:51:02.219Z,53.55
2022-09-02T00:52:02.216Z,49.21
2022-09-02T00:53:02.154Z,64.74
2022-09-02T00:54:02.234Z,47.14
2022-09-02T00:55:02.165Z,49.94
2022-09-02T00:56:02.195Z,51.53
2022-09-02T00:57:02.144Z,52.86
2022-09-02T00:58:02.114Z,53.07
2022-09-02T00:59:02.120Z,51.26
2022-09-02T01:00:02.092Z,50.60
2022-09-02T01:01:02.250Z,50.49
2022-09-02T01:02:02.242Z,44.91
2022-09-02T01:03:02.112Z,43.54
2022-09-02T01:04:02.122Z,48.54
2022-09-02T01:05:02.054Z,43.90
2022-09-02T01:06:35.924Z,43.45
2022-09-02T01:07:02.049Z,44.76
2022-09-02T01:08:35.969Z,44.66
2022-09-02T01:09:34.473Z,54.73
2022-09-02T01:10:02.059Z,43.02
2022-09-02T01:11:02.603Z,47.52
2022-09-02T01:12:01.975Z,44.37
2022-09-02T01:13:01.980Z,43.34
2022-09-02T01:14:01.976Z,44.42
2022-09-02T01:15:02.143Z,51.38
2022-09-02T01:16:36.155Z,42.89
2022-09-02T01:17:02.057Z,48.77
2022-09-02T01:18:02.040Z,42.91
2022-09-02T01:19:01.935Z,50.76
2022-09-02T01:20:01.960Z,51.43
2022-09-02T01:21:01.993Z,48.35
2022-09-02T01:22:01.936Z,44.68
2022-09-02T01:23:01.960Z,45.14
2022-09-02T01:24:01.970Z,43.19
2022-09-02T01:25:01.982Z,49.24
2022-09-02T01:26:01.900Z,43.64
2022-09-02T01:27:01.880Z,44.61
2022-09-02T01:28:03.026Z,47.91
2022-09-02T01:29:02.119Z,43.86
2022-09-02T01:30:01.890Z,44.47
2022-09-02T01:31:01.899Z,44.51
2022-09-02T01:32:01.848Z,43.32
2022-09-02T01:33:01.880Z,44.07
2022-09-02T01:34:01.926Z,43.81
2022-09-02T01:35:01.866Z,44.34
2022-09-02T01:36:01.875Z,44.48
2022-09-02T01:37:01.867Z,45.35
2022-09-02T01:38:01.848Z,44.79
2022-09-02T01:39:01.859Z,50.23
2022-09-02T01:40:01.856Z,48.20
2022-09-02T01:41:01.845Z,44.00
2022-09-02T01:42:01.819Z,52.48
2022-09-02T01:43:01.782Z,49.24
2022-09-02T01:44:01.806Z,43.75
2022-09-02T01:45:01.786Z,47.75
2022-09-02T02:03:39.625Z,44.90
2022-09-02T02:04:39.053Z,43.89
2022-09-02T02:05:40.189Z,50.13
2022-09-02T02:06:40.739Z,44.17
2022-09-02T02:07:41.126Z,47.73
2022-09-02T02:08:40.352Z,43.88
2022-09-02T02:09:40.139Z,43.38
2022-09-02T02:10:40.185Z,43.50
2022-09-02T02:11:40.157Z,45.21
2022-09-02T02:12:40.176Z,48.28
2022-09-02T02:13:41.279Z,51.12
2022-09-02T02:14:40.776Z,49.39
2022-09-02T02:16:12.754Z,49.30
2022-09-02T02:17:12.565Z,51.02
2022-09-02T02:17:40.085Z,44.24
2022-09-02T02:19:13.259Z,49.30
2022-09-02T02:19:40.066Z,52.55
2022-09-02T02:20:40.637Z,45.15
2022-09-02T02:21:40.060Z,48.08
2022-09-02T02:23:14.368Z,48.66
2022-09-02T02:23:40.075Z,59.90
2022-09-02T02:24:40.025Z,45.31
2022-09-02T02:25:40.643Z,53.56
2022-09-02T02:26:40.037Z,48.33
2022-09-02T02:27:40.006Z,49.67
2022-09-02T02:28:40.007Z,51.22
2022-09-02T02:29:39.994Z,54.35
2022-09-02T02:30:39.988Z,50.17
2022-09-02T02:31:40.908Z,49.80
2022-09-02T02:32:40.023Z,49.34
2022-09-02T02:33:39.931Z,48.81
2022-09-02T02:34:39.965Z,52.76
2022-09-02T02:35:39.970Z,53.98
2022-09-02T02:36:39.971Z,46.09
2022-09-02T02:37:39.917Z,53.35
2022-09-02T02:38:39.918Z,50.63
2022-09-02T02:39:39.915Z,48.29
2022-09-02T02:40:40.063Z,58.50
2022-09-02T02:41:39.920Z,49.17
2022-09-02T02:42:39.869Z,49.90
2022-09-02T02:43:39.848Z,45.30
2022-09-02T02:44:39.881Z,53.14
2022-09-02T02:45:39.848Z,48.99
2022-09-02T02:46:39.903Z,61.16
2022-09-02T02:47:39.859Z,50.90
2022-09-02T02:48:39.862Z,49.77
2022-09-02T02:49:39.835Z,48.94
2022-09-02T02:50:39.916Z,49.17
2022-09-02T02:51:39.800Z,45.13
2022-09-02T02:52:39.782Z,50.55
2022-09-02T02:53:39.810Z,44.80
2022-09-02T02:54:39.818Z,56.94
2022-09-02T02:55:39.771Z,56.30
2022-09-02T02:56:39.792Z,49.64
2022-09-02T02:57:39.817Z,46.74
2022-09-02T02:58:39.786Z,50.54
2022-09-02T02:59:39.733Z,48.36
2022-09-02T03:00:39.744Z,49.76
2022-09-02T03:01:39.774Z,55.45
2022-09-02T03:02:39.846Z,50.18
2022-09-02T03:03:39.770Z,56.08
2022-09-02T03:04:39.722Z,52.63
2022-09-02T03:05:39.767Z,49.99
2022-09-02T03:06:39.694Z,59.88
2022-09-02T03:07:39.681Z,50.57
2022-09-02T03:08:39.659Z,52.53
2022-09-02T03:09:39.701Z,65.39
2022-09-02T03:10:39.697Z,60.16
2022-09-02T03:11:39.640Z,57.35
2022-09-02T03:12:39.675Z,55.66
2022-09-02T03:13:39.626Z,51.82
2022-09-02T03:14:39.623Z,53.82
2022-09-02T03:15:39.706Z,57.02
2022-09-02T03:16:39.609Z,60.45
2022-09-02T03:17:39.624Z,56.76
2022-09-02T03:18:39.599Z,52.32
2022-09-02T03:19:39.589Z,46.21
2022-09-02T03:20:39.586Z,56.75
2022-09-02T03:21:40.337Z,56.56
2022-09-02T03:22:39.558Z,58.10
2022-09-02T03:23:40.535Z,59.02
2022-09-02T03:24:39.611Z,56.50
2022-09-02T03:25:40.374Z,56.06
2022-09-02T03:26:39.610Z,59.79
2022-09-02T03:27:39.508Z,56.42
2022-09-02T03:28:39.478Z,58.63
2022-09-02T03:29:40.511Z,60.71
2022-09-02T03:30:39.518Z,61.39
2022-09-02T03:31:39.526Z,65.76
2022-09-02T03:32:39.517Z,58.16
2022-09-02T03:33:39.483Z,57.31
2022-09-02T03:34:39.477Z,65.53
2022-09-02T03:35:39.524Z,55.36
2022-09-02T03:36:39.441Z,59.52
2022-09-02T03:37:39.468Z,65.95
2022-09-02T03:38:39.454Z,58.31
2022-09-02T03:39:39.477Z,61.85
2022-09-02T03:40:39.469Z,62.64
2022-09-02T03:41:39.416Z,62.95
2022-09-02T03:42:39.433Z,56.97
2022-09-02T03:43:39.371Z,64.19
2022-09-02T03:44:39.408Z,61.61
2022-09-02T03:45:39.436Z,66.00
2022-09-02T03:46:40.390Z,64.77
2022-09-02T04:03:24.541Z,59.32
2022-09-02T04:04:24.344Z,66.49
2022-09-02T04:05:25.674Z,56.71
2022-09-02T04:06:26.315Z,58.99
2022-09-02T04:07:26.490Z,67.21
2022-09-02T04:08:26.090Z,59.93
2022-09-02T04:09:25.519Z,62.74
2022-09-02T04:10:58.984Z,64.16
2022-09-02T04:11:59.527Z,59.77
2022-09-02T04:12:25.438Z,57.42
2022-09-02T04:13:53.042Z,63.96
2022-09-02T04:14:25.385Z,69.55
2022-09-02T04:16:01.902Z,66.90
2022-09-02T04:16:27.319Z,67.63
2022-09-02T04:17:25.350Z,60.48
2022-09-02T04:18:25.420Z,53.42
2022-09-02T04:19:25.351Z,62.66
2022-09-02T04:20:25.390Z,60.75
2022-09-02T04:21:25.382Z,64.20
2022-09-02T04:22:25.323Z,67.33
2022-09-02T04:23:25.383Z,64.86
2022-09-02T04:24:25.369Z,62.50
2022-09-02T04:25:27.666Z,61.89
2022-09-02T04:26:25.982Z,64.43
2022-09-02T04:27:25.329Z,63.11
2022-09-02T04:28:25.308Z,64.82
2022-09-02T04:29:25.322Z,66.97
2022-09-02T04:30:25.329Z,66.20
2022-09-02T04:31:25.462Z,60.86
2022-09-02T04:32:25.307Z,69.30
2022-09-02T04:33:27.506Z,68.33
2022-09-02T04:34:25.333Z,65.57
2022-09-02T04:35:25.740Z,67.13
2022-09-02T04:36:25.243Z,67.24
2022-09-02T04:37:25.689Z,65.24
2022-09-02T04:38:25.247Z,68.55
2022-09-02T04:39:25.248Z,70.12
2022-09-02T04:40:25.272Z,54.90
2022-09-02T04:41:25.253Z,65.24
2022-09-02T04:42:25.256Z,67.14
2022-09-02T04:43:25.279Z,62.00
2022-09-02T04:44:25.310Z,63.59
2022-09-02T04:45:29.614Z,65.19
2022-09-02T04:46:31.347Z,71.79
2022-09-02T04:47:26.237Z,71.80
2022-09-02T04:48:25.183Z,69.64
2022-09-02T04:49:25.231Z,65.98
2022-09-02T04:50:25.222Z,68.15
2022-09-02T04:51:25.234Z,65.25
2022-09-02T04:52:25.142Z,62.64
2022-09-02T04:53:25.160Z,69.02
2022-09-02T04:54:25.996Z,61.97
2022-09-02T04:55:25.161Z,67.08
2022-09-02T04:56:25.146Z,54.94
2022-09-02T04:57:25.117Z,63.05
2022-09-02T04:58:25.162Z,68.63
2022-09-02T04:59:25.168Z,67.64
2022-09-02T05:00:25.055Z,66.14
2022-09-02T05:01:26.063Z,61.26
2022-09-02T05:02:25.219Z,68.24
2022-09-02T05:03:25.048Z,68.84
2022-09-02T05:04:25.023Z,68.33
2022-09-02T05:05:25.035Z,59.11
2022-09-02T05:06:25.042Z,69.69
2022-09-02T05:07:25.061Z,72.60
2022-09-02T05:08:25.072Z,68.42
2022-09-02T05:09:25.017Z,65.57
2022-09-02T05:10:25.020Z,69.78
2022-09-02T05:11:25.027Z,66.88
2022-09-02T05:12:25.087Z,70.48
2022-09-02T05:13:24.975Z,69.99
2022-09-02T05:14:24.987Z,64.57
2022-09-02T05:15:24.959Z,64.05
2022-09-02T05:16:25.038Z,70.84
2022-09-02T05:17:24.968Z,65.66
2022-09-02T05:18:25.019Z,68.37
2022-09-02T05:19:24.986Z,62.82
2022-09-02T05:20:24.913Z,70.17
2022-09-02T05:21:24.907Z,60.45
2022-09-02T05:22:25.006Z,61.85
2022-09-02T05:23:24.946Z,68.44
2022-09-02T05:24:26.768Z,66.67
2022-09-02T05:25:25.868Z,69.28
2022-09-02T05:26:24.925Z,68.77
2022-09-02T05:27:24.879Z,61.69
2022-09-02T05:28:24.878Z,68.77
2022-09-02T05:29:24.892Z,66.01
2022-09-02T05:30:24.864Z,67.39
2022-09-02T05:31:26.602Z,66.08
2022-09-02T05:32:24.839Z,71.73
2022-09-02T05:33:24.904Z,70.77
2022-09-02T05:34:24.829Z,66.21
2022-09-02T05:35:24.792Z,63.25
2022-09-02T05:36:24.843Z,72.10
2022-09-02T05:37:24.816Z,69.46
2022-09-02T05:38:24.824Z,67.40
2022-09-02T05:39:24.829Z,65.69
2022-09-02T05:40:24.802Z,66.91
2022-09-02T05:41:24.800Z,64.69
2022-09-02T05:42:24.832Z,70.78
2022-09-02T05:43:24.736Z,66.81
2022-09-02T05:44:24.796Z,69.04
2022-09-02T05:45:24.749Z,69.57
2022-09-02T05:46:24.836Z,65.41
2022-09-02T05:47:24.738Z,67.67
2022-09-02T05:48:24.699Z,70.88
2022-09-02T05:49:24.738Z,61.25
2022-09-02T05:50:24.762Z,70.16
2022-09-02T05:51:26.757Z,70.89
2022-09-02T05:52:24.869Z,66.71
2022-09-02T05:53:24.732Z,63.96
2022-09-02T05:54:24.689Z,67.04
2022-09-02T05:55:24.692Z,66.85
2022-09-02T05:56:24.656Z,67.33
2022-09-02T05:57:24.655Z,65.99
2022-09-02T05:58:24.637Z,66.36
2022-09-02T05:59:24.645Z,69.74
2022-09-02T06:00:24.604Z,64.98
2022-09-02T06:01:24.673Z,67.46
2022-09-02T06:02:24.711Z,68.13
2022-09-02T06:03:25.400Z,65.23
2022-09-02T06:04:24.585Z,64.30
2022-09-02T06:05:24.582Z,63.80
2022-09-02T06:06:24.611Z,67.07
2022-09-02T06:07:24.596Z,61.87
2022-09-02T06:08:24.567Z,64.09
2022-09-02T06:09:24.602Z,61.99
2022-09-02T06:10:24.577Z,65.52
2022-09-02T06:11:24.605Z,65.47
2022-09-02T06:12:24.568Z,63.74
2022-09-02T06:13:24.648Z,65.51
2022-09-02T06:14:24.533Z,64.74
2022-09-02T06:15:24.561Z,61.18
2022-09-02T06:16:24.571Z,69.22
2022-09-02T06:17:24.508Z,68.15
2022-09-02T06:18:24.484Z,64.47
2022-09-02T06:19:24.467Z,70.00
2022-09-02T06:20:24.493Z,71.04
2022-09-02T06:21:24.473Z,58.92
2022-09-02T06:22:24.467Z,62.19
2022-09-02T06:23:24.512Z,63.41
2022-09-02T06:24:24.457Z,63.71
2022-09-02T06:25:24.470Z,59.25
2022-09-02T06:26:24.506Z,69.29
2022-09-02T06:27:24.422Z,67.82
2022-09-02T06:28:24.455Z,66.88
2022-09-02T06:29:24.382Z,69.09
2022-09-02T06:30:24.429Z,67.86
2022-09-02T06:31:24.495Z,69.72
2022-09-02T06:32:24.414Z,63.50
2022-09-02T06:33:25.250Z,64.59
2022-09-02T06:34:24.424Z,66.95
2022-09-02T06:35:24.415Z,66.88
2022-09-02T06:36:28.142Z,64.74
2022-09-02T06:37:24.365Z,67.24
2022-09-02T06:38:24.350Z,65.73
2022-09-02T06:39:24.314Z,64.23
2022-09-02T06:40:24.331Z,68.25
2022-09-02T06:41:24.360Z,62.42
2022-09-02T06:42:24.366Z,67.73
2022-09-02T06:43:24.462Z,66.91
2022-09-02T06:44:24.307Z,70.37
2022-09-02T06:45:24.347Z,66.66
2022-09-02T06:46:24.317Z,63.20
2022-09-02T06:47:24.285Z,66.28
2022-09-02T06:48:24.319Z,62.74
2022-09-02T06:49:25.317Z,70.09
2022-09-02T06:50:24.257Z,65.26
2022-09-02T06:51:24.240Z,66.40
2022-09-02T06:52:24.219Z,68.51
2022-09-02T06:53:24.219Z,69.11
2022-09-02T06:54:24.304Z,63.93
2022-09-02T06:55:24.206Z,62.99
2022-09-02T06:56:24.174Z,63.09
2022-09-02T06:57:31.300Z,66.91
2022-09-02T06:58:25.756Z,71.05
2022-09-02T06:59:24.198Z,68.83
2022-09-02T07:00:24.195Z,70.78
2022-09-02T07:01:24.305Z,66.87
2022-09-02T07:02:24.209Z,67.30
2022-09-02T07:03:24.159Z,64.38
2022-09-02T07:04:24.206Z,69.30
2022-09-02T07:05:24.173Z,62.46
2022-09-02T07:06:24.203Z,66.33
2022-09-02T07:07:24.228Z,67.95
2022-09-02T07:08:24.148Z,64.85
2022-09-02T07:09:24.163Z,59.38
2022-09-02T07:10:24.194Z,69.41
2022-09-02T07:11:24.152Z,70.79
2022-09-02T07:12:24.074Z,67.80
2022-09-02T07:13:24.703Z,66.09
2022-09-02T07:14:24.067Z,64.14
2022-09-02T07:15:24.060Z,64.74
2022-09-02T07:16:27.267Z,65.62
2022-09-02T07:17:24.078Z,66.61
2022-09-02T07:18:24.016Z,67.56
2022-09-02T07:19:24.013Z,67.81
2022-09-02T07:20:24.059Z,66.02
2022-09-02T07:21:24.096Z,61.85
2022-09-02T07:22:24.060Z,63.25
2022-09-02T07:23:24.760Z,66.66
2022-09-02T07:24:24.021Z,68.72
2022-09-02T07:25:24.046Z,66.61
2022-09-02T07:26:24.016Z,67.62
2022-09-02T07:27:23.967Z,59.86
2022-09-02T07:28:23.981Z,66.63
2022-09-02T07:29:24.027Z,67.36
2022-09-02T07:30:24.057Z,59.43
2022-09-02T07:31:23.991Z,69.71
2022-09-02T07:32:24.012Z,69.74
2022-09-02T07:33:24.074Z,63.62
2022-09-02T07:34:23.972Z,64.10
2022-09-02T07:35:23.930Z,68.73
2022-09-02T07:36:23.937Z,67.39
2022-09-02T07:37:24.296Z,63.80
2022-09-02T07:38:24.817Z,69.89
2022-09-02T07:39:24.760Z,63.24
2022-09-02T07:40:24.054Z,67.37
2022-09-02T07:41:23.874Z,63.95
2022-09-02T07:42:23.938Z,68.44
2022-09-02T07:43:24.756Z,65.75
2022-09-02T07:44:23.892Z,59.92
2022-09-02T07:45:23.852Z,68.13
2022-09-02T07:46:23.896Z,71.04
2022-09-02T07:47:23.845Z,65.32
2022-09-02T07:48:23.878Z,63.96
2022-09-02T07:49:24.256Z,68.73
2022-09-02T07:50:24.847Z,66.05
2022-09-02T07:51:23.831Z,66.94
2022-09-02T07:52:24.820Z,65.67
2022-09-02T07:53:23.940Z,61.19
2022-09-02T07:54:23.805Z,60.72
2022-09-02T07:55:23.792Z,70.61
2022-09-02T07:56:23.811Z,67.30
2022-09-02T07:57:23.763Z,61.08
2022-09-02T07:58:23.836Z,68.63
2022-09-02T07:59:23.778Z,68.42
2022-09-02T08:00:23.760Z,66.72
2022-09-02T08:01:24.076Z,65.91
2022-09-02T08:02:23.810Z,69.74
2022-09-02T08:03:23.731Z,64.87
2022-09-02T08:04:23.786Z,67.42
2022-09-02T08:05:23.718Z,66.25
2022-09-02T08:06:34.643Z,62.46
2022-09-02T08:07:24.679Z,61.23
2022-09-02T08:08:23.698Z,64.88
2022-09-02T08:09:23.707Z,65.97
2022-09-02T08:10:23.637Z,65.79
2022-09-02T08:11:23.689Z,64.34
2022-09-02T08:12:23.634Z,64.67
2022-09-02T08:13:23.757Z,67.72
2022-09-02T08:14:23.734Z,70.43
2022-09-02T08:15:23.647Z,67.92
2022-09-02T08:16:23.648Z,66.58
2022-09-02T08:17:23.680Z,69.61
2022-09-02T08:18:23.568Z,66.13
2022-09-02T08:19:23.679Z,65.65
2022-09-02T08:20:23.589Z,62.67
2022-09-02T08:21:23.605Z,66.38
2022-09-02T08:23:10.845Z,67.34
2022-09-02T08:23:37.865Z,60.03
2022-09-02T08:27:17.305Z,56.09
2022-09-02T08:28:18.712Z,65.55
2022-09-02T08:29:50.250Z,65.36
2022-09-02T08:30:17.848Z,68.03
2022-09-02T08:31:17.878Z,65.43
2022-09-02T08:32:17.829Z,65.15
2022-09-02T08:33:17.887Z,64.17
2022-09-02T08:34:17.894Z,62.59
2022-09-02T08:35:17.814Z,63.35
2022-09-02T08:36:17.920Z,68.08
2022-09-02T08:37:18.937Z,62.95
2022-09-02T08:38:18.459Z,64.76
2022-09-02T08:39:17.884Z,64.42
2022-09-02T08:40:18.771Z,67.28
2022-09-02T08:41:18.713Z,68.60
2022-09-02T08:42:17.911Z,62.52
2022-09-02T08:43:17.909Z,67.23
2022-09-02T08:44:17.802Z,67.02
2022-09-02T08:45:17.796Z,61.34
2022-09-02T08:46:17.814Z,66.07
2022-09-02T08:47:17.741Z,63.56
2022-09-02T08:48:17.730Z,59.88
2022-09-02T08:49:17.786Z,64.92
2022-09-02T08:50:17.806Z,67.69
2022-09-02T08:51:17.808Z,65.38
2022-09-02T08:52:17.961Z,62.90
2022-09-02T08:53:18.756Z,58.26
2022-09-02T08:54:17.787Z,60.11
2022-09-02T08:55:17.755Z,56.12
2022-09-02T08:56:18.598Z,66.16
2022-09-02T08:57:17.806Z,64.82
2022-09-02T08:58:17.795Z,68.19
2022-09-02T08:59:17.692Z,64.23
2022-09-02T09:00:17.677Z,65.78
2022-09-02T09:01:17.771Z,67.03
2022-09-02T09:02:17.982Z,66.82
2022-09-02T09:03:17.646Z,62.40
2022-09-02T09:04:17.685Z,66.01
2022-09-02T09:05:17.634Z,66.72
2022-09-02T09:06:18.217Z,63.06
2022-09-02T09:07:17.673Z,60.10
2022-09-02T09:08:21.609Z,68.15
2022-09-02T09:09:51.932Z,66.04
2022-09-02T09:10:17.546Z,66.18
2022-09-02T09:11:18.250Z,62.73
2022-09-02T09:12:17.536Z,65.97
2022-09-02T09:13:17.475Z,69.35
2022-09-02T09:14:17.513Z,68.49
2022-09-02T09:15:17.612Z,63.69
2022-09-02T09:16:17.578Z,63.50
2022-09-02T09:17:50.831Z,56.32
2022-09-02T09:18:18.619Z,53.62
2022-09-02T09:19:17.656Z,66.63
2022-09-02T09:20:17.557Z,66.55
2022-09-02T09:21:19.103Z,65.59
2022-09-02T09:22:50.927Z,67.92
2022-09-02T09:23:49.844Z,66.68
2022-09-02T09:24:51.501Z,63.90
2022-09-02T09:25:51.512Z,64.14
2022-09-02T09:26:43.854Z,68.84
2022-09-02T09:27:51.566Z,62.73
2022-09-02T09:31:15.571Z,68.30
2022-09-02T09:32:16.763Z,58.46
2022-09-02T09:33:16.757Z,59.37
2022-09-02T09:34:16.782Z,66.88
2022-09-02T09:35:16.644Z,65.50
2022-09-02T09:36:16.747Z,64.53
2022-09-02T09:37:16.763Z,65.95
2022-09-02T09:38:17.536Z,64.38
2022-09-02T09:39:16.755Z,66.65
2022-09-02T09:40:16.791Z,66.18
2022-09-02T09:41:16.698Z,64.46
2022-09-02T09:42:16.876Z,66.58
2022-09-02T09:43:16.917Z,67.96
2022-09-02T09:44:16.654Z,63.53
2022-09-02T09:45:17.685Z,62.06
2022-09-02T09:46:16.854Z,64.60
2022-09-02T09:47:18.138Z,62.88
2022-09-02T09:48:18.540Z,64.67
2022-09-02T09:49:16.597Z,66.93
2022-09-02T09:50:16.711Z,65.18
2022-09-02T09:51:16.668Z,64.76
2022-09-02T09:52:16.640Z,65.40
2022-09-02T09:53:17.559Z,66.37
2022-09-02T09:54:16.591Z,66.76
2022-09-02T09:55:22.874Z,62.81
2022-09-02T09:56:17.753Z,65.86
2022-09-02T09:57:16.587Z,63.34
2022-09-02T09:58:17.402Z,65.50
2022-09-02T09:59:16.577Z,66.83
2022-09-02T10:00:17.418Z,68.23
2022-09-02T10:01:16.685Z,68.36
2022-09-02T10:02:16.682Z,67.79
2022-09-02T10:03:16.551Z,67.97
2022-09-02T10:04:39.388Z,63.81
2022-09-02T10:05:19.343Z,68.09
2022-09-02T10:06:17.151Z,67.49
2022-09-02T10:07:16.577Z,66.13
2022-09-02T10:08:17.000Z,66.95
2022-09-02T10:09:17.122Z,68.98
2022-09-02T10:10:17.209Z,67.08
2022-09-02T10:11:17.051Z,70.21
2022-09-02T10:12:17.072Z,69.46
2022-09-02T10:14:17.383Z,67.81
2022-09-02T10:15:16.481Z,66.86
2022-09-02T10:16:17.117Z,66.86
2022-09-02T10:17:19.055Z,67.88
2022-09-02T10:18:17.056Z,67.97
2022-09-02T10:19:17.300Z,66.85
2022-09-02T10:20:17.304Z,65.39
2022-09-02T10:21:16.606Z,66.60
2022-09-02T10:22:17.146Z,66.91
2022-09-02T10:23:16.349Z,66.09
2022-09-02T10:24:16.370Z,66.03
2022-09-02T10:25:16.451Z,65.75
2022-09-02T10:26:16.459Z,68.15
2022-09-02T10:27:16.395Z,66.29
2022-09-02T10:28:17.392Z,65.78
2022-09-02T10:29:17.361Z,67.02
2022-09-02T10:30:48.682Z,66.23
2022-09-02T10:31:17.637Z,71.14
2022-09-02T10:32:16.362Z,68.54
2022-09-02T10:33:17.607Z,67.62
2022-09-02T10:34:18.607Z,69.08
2022-09-02T10:35:17.283Z,69.47
2022-09-02T10:36:20.932Z,68.59
2022-09-02T10:37:18.337Z,69.93
2022-09-02T10:38:16.273Z,65.78
2022-09-02T10:39:16.411Z,69.26
2022-09-02T10:40:16.342Z,68.47
2022-09-02T10:41:16.315Z,66.57
2022-09-02T10:42:16.907Z,66.06
2022-09-02T10:43:16.239Z,61.06
2022-09-02T10:44:18.103Z,68.00
2022-09-02T10:45:17.601Z,63.35
2022-09-02T10:46:16.307Z,68.76
2022-09-02T10:47:16.223Z,68.40
2022-09-02T10:48:16.257Z,67.86
2022-09-02T10:49:16.221Z,66.59
2022-09-02T10:50:16.382Z,64.83
2022-09-02T10:51:16.481Z,65.48
2022-09-02T10:53:16.197Z,66.77
2022-09-02T10:54:16.203Z,65.48
2022-09-02T10:55:16.118Z,67.77
2022-09-02T10:56:16.186Z,62.66
2022-09-02T10:59:35.077Z,70.87
2022-09-02T11:00:36.249Z,68.82
2022-09-02T11:01:37.813Z,68.82
2022-09-02T11:02:36.234Z,69.01
2022-09-02T11:03:36.401Z,66.42
2022-09-02T11:04:36.207Z,69.34
2022-09-02T11:05:36.318Z,68.39
2022-09-02T11:06:52.037Z,69.23
2022-09-02T11:07:38.215Z,64.60
2022-09-02T11:08:36.270Z,63.70
2022-09-02T11:09:36.333Z,59.06
2022-09-02T11:10:36.367Z,68.41
2022-09-02T11:11:36.464Z,68.26
2022-09-02T11:13:10.280Z,65.95
2022-09-02T11:13:36.715Z,72.27
2022-09-02T11:14:37.305Z,69.89
2022-09-02T11:15:37.582Z,66.05
2022-09-02T11:20:23.182Z,65.04
2022-09-02T11:21:23.008Z,67.95
2022-09-02T11:22:27.417Z,64.57
2022-09-02T11:23:26.080Z,67.46
2022-09-02T11:24:24.878Z,69.36
2022-09-02T11:25:25.176Z,67.77
2022-09-02T11:26:25.514Z,67.24
2022-09-02T11:27:39.324Z,58.21
2022-09-02T11:28:26.851Z,66.61
2022-09-02T11:29:24.457Z,65.98
2022-09-02T11:30:24.956Z,68.74
2022-09-02T11:31:24.582Z,66.80
2022-09-02T11:32:24.849Z,69.29
2022-09-02T11:33:25.032Z,68.43
2022-09-02T11:34:25.509Z,68.04
2022-09-02T11:35:32.218Z,64.33
2022-09-02T11:36:25.752Z,64.51
2022-09-02T11:37:28.348Z,68.63
2022-09-02T11:38:25.660Z,67.29
2022-09-02T11:39:36.222Z,67.37
2022-09-02T11:40:34.270Z,65.34
2022-09-02T11:41:41.499Z,67.70
2022-09-02T11:42:28.226Z,69.62
2022-09-02T11:43:24.763Z,68.69
2022-09-02T11:44:26.943Z,70.23
2022-09-02T11:45:26.826Z,69.92
2022-09-02T11:46:25.429Z,67.09
2022-09-02T11:47:25.107Z,68.62
2022-09-02T11:48:24.613Z,65.61
2022-09-02T11:49:24.691Z,69.49
2022-09-02T11:50:25.567Z,66.06
2022-09-02T11:51:24.711Z,67.38
2022-09-02T11:52:24.649Z,68.92
2022-09-02T11:53:24.181Z,68.82
2022-09-02T11:54:24.069Z,67.77
2022-09-02T11:55:24.122Z,67.19
2022-09-02T11:56:24.535Z,68.23
2022-09-02T11:57:23.954Z,65.51
2022-09-02T11:58:24.526Z,65.30
2022-09-02T11:59:24.044Z,65.24
2022-09-02T12:00:23.941Z,67.64
2022-09-02T12:01:25.590Z,66.01
2022-09-02T12:02:24.974Z,67.66
2022-09-02T12:03:58.633Z,67.40
2022-09-02T12:05:26.030Z,67.52
2022-09-02T12:06:24.943Z,65.78
2022-09-02T12:07:26.404Z,68.24
2022-09-02T12:08:24.054Z,69.41
2022-09-02T12:09:23.953Z,68.04
2022-09-02T12:10:23.923Z,63.47
2022-09-02T12:11:24.003Z,67.65
2022-09-02T12:12:23.900Z,68.72
2022-09-02T12:13:24.039Z,69.39
2022-09-02T12:14:23.906Z,69.61
2022-09-02T12:15:23.863Z,66.06
2022-09-02T12:16:24.839Z,68.32
2022-09-02T12:17:23.983Z,66.52
2022-09-02T12:18:24.648Z,67.38
2022-09-02T12:19:25.528Z,70.65
2022-09-02T12:20:24.570Z,66.10
2022-09-02T12:21:24.061Z,70.94
2022-09-02T12:22:24.534Z,69.51
2022-09-02T12:23:23.802Z,67.99
2022-09-02T12:24:23.789Z,68.03
2022-09-02T12:25:27.036Z,65.53
2022-09-02T12:26:24.346Z,67.73
2022-09-02T12:27:58.069Z,70.60
2022-09-02T12:28:24.082Z,70.81
2022-09-02T12:29:25.125Z,69.86
2022-09-02T12:30:23.647Z,68.08
2022-09-02T12:31:23.758Z,69.76
2022-09-02T12:35:23.515Z,67.04
2022-09-02T12:36:23.531Z,68.50
2022-09-02T12:37:23.009Z,66.04
2022-09-02T12:38:23.809Z,68.82
2022-09-02T12:39:23.033Z,69.91
2022-09-02T12:40:23.969Z,65.42
2022-09-02T12:41:24.043Z,67.62
2022-09-02T12:42:22.939Z,69.25
2022-09-02T12:43:22.878Z,67.69
2022-09-02T12:44:23.763Z,64.81
2022-09-02T12:45:26.728Z,69.85
2022-09-02T12:46:25.820Z,67.04
2022-09-02T12:47:23.769Z,70.01
2022-09-02T12:48:37.940Z,67.38
2022-09-02T12:49:24.684Z,67.03
2022-09-02T12:50:22.897Z,67.67
2022-09-02T12:51:23.649Z,68.30
2022-09-02T12:52:22.842Z,65.93
2022-09-02T12:53:24.259Z,67.03
2022-09-02T12:54:22.993Z,70.30
2022-09-02T12:55:23.760Z,69.24
2022-09-02T12:56:23.769Z,65.83
2022-09-02T12:57:25.267Z,67.86
2022-09-02T12:58:22.903Z,66.70
2022-09-02T12:59:22.828Z,67.63
2022-09-02T13:00:23.161Z,67.43
2022-09-02T13:01:22.954Z,67.38
2022-09-02T13:02:26.789Z,66.90
2022-09-02T13:03:24.836Z,69.55
2022-09-02T13:04:23.262Z,67.53
2022-09-02T13:05:23.279Z,64.16
2022-09-02T13:06:22.822Z,67.09
2022-09-02T13:07:24.263Z,65.13
2022-09-02T13:08:23.265Z,67.77
2022-09-02T13:09:22.664Z,68.65
2022-09-02T13:10:22.661Z,68.30
2022-09-02T13:11:22.680Z,67.24
2022-09-02T13:12:22.683Z,67.67
2022-09-02T13:13:23.438Z,68.57
2022-09-02T13:14:22.686Z,67.79
2022-09-02T13:15:23.689Z,68.30
2022-09-02T13:16:22.671Z,68.65
2022-09-02T13:17:36.190Z,66.31
2022-09-02T13:18:24.711Z,62.62
2022-09-02T13:19:22.683Z,67.90
2022-09-02T13:20:22.666Z,69.75
2022-09-02T13:21:22.733Z,65.86
2022-09-02T13:22:23.275Z,66.94
2022-09-02T13:23:29.723Z,66.45
2022-09-02T13:24:23.583Z,68.57
2022-09-02T13:25:23.321Z,68.55
2022-09-02T13:26:39.127Z,56.10
2022-09-02T13:27:24.573Z,62.24
2022-09-02T13:28:23.921Z,69.01
2022-09-02T13:29:24.603Z,66.79
2022-09-02T13:30:22.610Z,64.74
2022-09-02T13:31:23.310Z,69.01
2022-09-02T13:32:22.699Z,70.26
2022-09-02T13:33:23.500Z,67.51
2022-09-02T13:34:22.617Z,65.70
2022-09-02T13:35:24.382Z,66.61
2022-09-02T13:36:22.703Z,65.74
2022-09-02T13:37:23.299Z,69.51
2022-09-02T13:38:22.911Z,66.48
2022-09-02T13:39:22.528Z,67.26
2022-09-02T13:40:24.296Z,63.56
2022-09-02T13:41:22.600Z,62.34
2022-09-02T13:42:23.784Z,66.86
2022-09-02T13:43:22.775Z,69.18